Terminal Aerodrome Forecast
Issued by NWS Cleveland, OH

Home | Current Version | Previous Version | Graphics & Text | Print | Product List | Glossary On
Versions: 1 2 3 4 5 6 7 8 9 10 11 12 13 14 15 16 17 18 19 20 21
000
FTUS41 KCLE 170540
TAFCAK
TAF
KCAK 170540Z 1706/1806 27015G23KT P6SM -SHSN OVC015
     FM170900 26016G26KT P6SM VCSH OVC020
     FM171500 27017G27KT 3SM -SHSN OVC025
     FM172300 28012KT P6SM OVC035=

USA.gov is the U.S. government's official web portal to all federal, state and local government web resources and services.